createdAt,value
2022-11-19T00:01:26.469Z,99867.34
2022-11-19T00:03:54.949Z,99858.13
2022-11-19T00:06:27.146Z,99856.97
2022-11-19T00:08:55.851Z,99860.78
2022-11-19T00:11:44.290Z,99858.22
2022-11-19T00:14:14.227Z,99853.09
2022-11-19T00:16:41.944Z,99846.59
2022-11-19T00:19:11.127Z,99845.56
2022-11-19T00:21:38.569Z,99835.28
2022-11-19T00:24:06.427Z,99844.41
2022-11-19T00:26:33.641Z,99833.47
2022-11-19T00:29:01.199Z,99838.66
2022-11-19T00:31:28.369Z,99841.84
2022-11-19T00:33:55.943Z,99841.31
2022-11-19T00:36:23.980Z,99837.56
2022-11-19T00:38:51.446Z,99841.38
2022-11-19T00:41:18.629Z,99845.53
2022-11-19T00:43:49.484Z,99832.16
2022-11-19T00:46:17.890Z,99844.13
2022-11-19T00:48:46.454Z,99841.31
2022-11-19T00:51:14.404Z,99828.44
2022-11-19T00:53:42.026Z,99826.59
2022-11-19T00:56:14.111Z,99822.94
2022-11-19T00:58:42.160Z,99823.84
2022-11-19T01:01:10.722Z,99839.44
2022-11-19T01:03:39.115Z,99824.31
2022-11-19T01:06:06.929Z,99835.59
2022-11-19T01:08:34.779Z,99824.41
2022-11-19T01:11:14.126Z,99830.19
2022-11-19T01:13:41.970Z,99836.31
2022-11-19T01:16:13.558Z,99832.44
2022-11-19T01:18:42.630Z,99829.13
2022-11-19T01:21:11.420Z,99829.13
2022-11-19T01:23:40.502Z,99821.22
2022-11-19T01:26:08.291Z,99824.56
2022-11-19T01:28:36.270Z,99808.69
2022-11-19T01:31:28.027Z,99820.47
2022-11-19T01:33:55.887Z,99812.22
2022-11-19T01:36:26.361Z,99807.13
2022-11-19T01:38:54.668Z,99795.81
2022-11-19T01:41:25.330Z,99800.97
2022-11-19T01:43:56.768Z,99808.88
2022-11-19T01:46:26.663Z,99800.13
2022-11-19T01:49:08.451Z,99798.59
2022-11-19T01:51:37.580Z,99802.47
2022-11-19T01:54:20.800Z,99797.19
2022-11-19T01:56:48.180Z,99784.41
2022-11-19T01:59:18.833Z,99790.66
2022-11-19T02:01:46.697Z,99790.19
2022-11-19T02:04:17.766Z,99779.81
2022-11-19T02:06:45.794Z,99779.03
2022-11-19T02:09:13.333Z,99785.31
2022-11-19T02:11:46.361Z,99783.59
2022-11-19T02:14:26.026Z,99780.88
2022-11-19T02:17:19.020Z,99788.06
2022-11-19T02:20:11.252Z,99790.06
2022-11-19T02:22:47.397Z,99792.06
2022-11-19T02:25:35.207Z,99779.94
2022-11-19T02:28:26.378Z,99767.50
2022-11-19T02:31:17.070Z,99763.38
2022-11-19T02:34:01.631Z,99755.88
2022-11-19T02:36:38.060Z,99771.63
2022-11-19T02:39:13.342Z,99768.75
2022-11-19T02:41:46.569Z,99767.09
2022-11-19T02:44:55.466Z,99766.00
2022-11-19T02:47:29.112Z,99760.53
2022-11-19T02:50:02.980Z,99768.69
2022-11-19T02:52:30.527Z,99754.28
2022-11-19T02:54:57.695Z,99750.97
2022-11-19T02:57:25.243Z,99745.75
2022-11-19T03:00:20.109Z,99752.25
2022-11-19T03:03:10.250Z,99751.34
2022-11-19T03:05:41.698Z,99755.25
2022-11-19T03:08:09.255Z,99746.41
2022-11-19T03:10:51.471Z,99751.47
2022-11-19T03:13:43.843Z,99744.25
2022-11-19T03:16:41.452Z,99744.31
2022-11-19T03:19:36.662Z,99745.19
2022-11-19T03:22:21.240Z,99744.91
2022-11-19T03:25:06.250Z,99746.22
2022-11-19T03:27:38.960Z,99748.13
2022-11-19T03:30:07.719Z,99739.47
2022-11-19T03:32:40.055Z,99739.63
2022-11-19T03:35:13.789Z,99749.75
2022-11-19T03:37:45.063Z,99747.28
2022-11-19T03:40:16.430Z,99743.13
2022-11-19T03:42:46.761Z,99739.91
2022-11-19T03:45:18.470Z,99729.59
2022-11-19T03:47:49.312Z,99735.47
2022-11-19T03:50:42.969Z,99736.44
2022-11-19T03:53:10.179Z,99733.91
2022-11-19T03:55:46.702Z,99736.38
2022-11-19T03:58:14.077Z,99720.78
2022-11-19T04:00:41.476Z,99721.44
2022-11-19T04:03:08.589Z,99731.00
2022-11-19T04:05:36.102Z,99719.00
2022-11-19T04:08:03.276Z,99723.88
2022-11-19T04:10:30.701Z,99726.81
2022-11-19T04:12:57.873Z,99715.84
2022-11-19T04:15:25.355Z,99725.38
2022-11-19T04:17:52.491Z,99725.88
2022-11-19T04:20:19.991Z,99738.59
2022-11-19T04:22:47.410Z,99724.50
2022-11-19T04:25:14.914Z,99731.66
2022-11-19T04:27:42.113Z,99726.28
2022-11-19T04:30:10.114Z,99729.69
2022-11-19T04:32:37.258Z,99715.84
2022-11-19T04:35:05.069Z,99721.81
2022-11-19T04:37:32.270Z,99721.81
2022-11-19T04:39:59.745Z,99725.09
2022-11-19T04:42:26.965Z,99719.97
2022-11-19T04:44:54.377Z,99714.78
2022-11-19T04:47:21.517Z,99717.75
2022-11-19T04:49:48.956Z,99711.03
2022-11-19T04:52:16.133Z,99714.72
2022-11-19T04:54:43.569Z,99721.50
2022-11-19T04:57:10.700Z,99722.50
2022-11-19T04:59:38.282Z,99698.19
2022-11-19T05:02:05.446Z,99712.09
2022-11-19T05:04:32.909Z,99707.94
2022-11-19T05:07:00.047Z,99701.06
2022-11-19T05:09:27.550Z,99716.00
2022-11-19T05:11:54.665Z,99714.44
2022-11-19T05:14:23.729Z,99716.13
2022-11-19T05:16:54.468Z,99718.38
2022-11-19T05:19:22.165Z,99715.41
2022-11-19T05:21:49.387Z,99717.09
2022-11-19T05:24:16.793Z,99706.84
2022-11-19T05:26:43.898Z,99711.16
2022-11-19T05:29:11.432Z,99708.16
2022-11-19T05:31:38.589Z,99699.06
2022-11-19T05:34:06.096Z,99715.84
2022-11-19T05:36:33.267Z,99705.13
2022-11-19T05:39:00.776Z,99702.44
2022-11-19T05:41:27.913Z,99718.09
2022-11-19T05:43:55.817Z,99719.59
2022-11-19T05:46:22.932Z,99707.44
2022-11-19T05:48:50.366Z,99719.25
2022-11-19T05:51:17.634Z,99728.78
2022-11-19T05:53:45.102Z,99724.34
2022-11-19T05:56:12.557Z,99719.97
2022-11-19T05:58:40.048Z,99728.06
2022-11-19T06:01:07.351Z,99726.81
2022-11-19T06:03:34.803Z,99730.09
2022-11-19T06:06:02.022Z,99724.38
2022-11-19T06:08:29.428Z,99731.53
2022-11-19T06:10:56.631Z,99728.78
2022-11-19T06:13:24.146Z,99724.84
2022-11-19T06:15:51.353Z,99733.09
2022-11-19T06:18:19.141Z,99729.38
2022-11-19T06:20:46.557Z,99725.50
2022-11-19T06:23:14.337Z,99728.72
2022-11-19T06:25:41.628Z,99720.19
2022-11-19T06:28:09.099Z,99727.47
2022-11-19T06:30:36.249Z,99730.75
2022-11-19T06:33:03.728Z,99715.72
2022-11-19T06:35:30.842Z,99725.63
2022-11-19T06:37:58.321Z,99732.59
2022-11-19T06:40:25.474Z,99728.78
2022-11-19T06:42:52.891Z,99721.03
2022-11-19T06:45:20.122Z,99719.22
2022-11-19T06:47:49.313Z,99731.75
2022-11-19T06:50:16.479Z,99732.19
2022-11-19T06:52:44.116Z,99718.53
2022-11-19T06:55:11.415Z,99727.94
2022-11-19T06:57:38.904Z,99728.78
2022-11-19T07:00:06.614Z,99731.03
2022-11-19T07:02:34.168Z,99721.88
2022-11-19T07:05:01.330Z,99739.00
2022-11-19T07:07:28.881Z,99732.66
2022-11-19T07:09:56.142Z,99726.16
2022-11-19T07:12:23.691Z,99740.91
2022-11-19T07:14:50.887Z,99738.53
2022-11-19T07:17:18.360Z,99737.56
2022-11-19T07:19:45.503Z,99745.63
2022-11-19T07:22:12.936Z,99744.41
2022-11-19T07:24:40.072Z,99734.41
2022-11-19T07:27:07.518Z,99730.09
2022-11-19T07:29:34.706Z,99732.63
2022-11-19T07:32:02.280Z,99729.59
2022-11-19T07:34:29.430Z,99742.03
2022-11-19T07:36:56.921Z,99736.13
2022-11-19T07:39:24.050Z,99737.81
2022-11-19T07:42:10.002Z,99740.00
2022-11-19T07:44:40.957Z,99749.81
2022-11-19T07:47:09.118Z,99742.75
2022-11-19T07:49:37.114Z,99744.72
2022-11-19T07:52:04.719Z,99751.34
2022-11-19T07:54:31.899Z,99732.06
2022-11-19T07:56:59.369Z,99729.97
2022-11-19T07:59:27.170Z,99740.47
2022-11-19T08:01:54.833Z,99740.44
2022-11-19T08:04:22.468Z,99740.50
2022-11-19T08:06:49.893Z,99754.81
2022-11-19T08:09:17.307Z,99748.06
2022-11-19T08:11:44.856Z,99749.44
2022-11-19T08:14:13.745Z,99744.13
2022-11-19T08:16:59.834Z,99751.78
2022-11-19T08:19:27.165Z,99747.94
2022-11-19T08:21:54.603Z,99735.22
2022-11-19T08:24:22.472Z,99746.09
2022-11-19T08:26:50.968Z,99747.34
2022-11-19T08:29:20.571Z,99755.59
2022-11-19T08:31:48.637Z,99748.50
2022-11-19T08:34:17.138Z,99754.16
2022-11-19T08:36:44.956Z,99737.00
2022-11-19T08:39:12.178Z,99748.13
2022-11-19T08:41:58.396Z,99756.69
2022-11-19T08:44:25.661Z,99759.91
2022-11-19T08:46:53.178Z,99754.34
2022-11-19T08:49:20.519Z,99752.72
2022-11-19T08:51:48.000Z,99753.69
2022-11-19T08:54:15.346Z,99754.22
2022-11-19T08:56:42.787Z,99749.38
2022-11-19T08:59:10.103Z,99739.53
2022-11-19T09:01:37.610Z,99744.44
2022-11-19T09:04:05.009Z,99749.44
2022-11-19T09:06:35.833Z,99752.59
2022-11-19T09:09:04.828Z,99739.97
2022-11-19T09:11:32.439Z,99748.88
2022-11-19T09:13:59.718Z,99742.28
2022-11-19T09:16:27.583Z,99750.28
2022-11-19T09:18:54.920Z,99760.13
2022-11-19T09:21:22.412Z,99749.59
2022-11-19T09:23:49.585Z,99761.88
2022-11-19T09:26:18.370Z,99750.53
2022-11-19T09:28:46.486Z,99756.00
2022-11-19T09:31:17.306Z,99755.72
2022-11-19T09:33:49.562Z,99755.00
2022-11-19T09:36:18.590Z,99750.88
2022-11-19T09:38:47.067Z,99750.31
2022-11-19T09:41:39.307Z,99751.00
2022-11-19T09:44:29.980Z,99749.25
2022-11-19T09:47:24.732Z,99755.72
2022-11-19T09:50:12.306Z,99740.59
2022-11-19T09:53:00.925Z,99743.63
2022-11-19T09:55:34.808Z,99753.59
2022-11-19T09:58:06.167Z,99739.88
2022-11-19T10:00:33.630Z,99753.19
2022-11-19T10:03:14.058Z,99747.81
2022-11-19T10:06:11.017Z,99734.53
2022-11-19T10:09:09.500Z,99751.88
2022-11-19T10:11:41.193Z,99743.50
2022-11-19T10:14:08.499Z,99738.72
2022-11-19T10:16:48.790Z,99738.97
2022-11-19T10:19:32.028Z,99737.16
2022-11-19T10:22:24.569Z,99739.88
2022-11-19T10:25:24.063Z,99738.66
2022-11-19T10:27:55.108Z,99731.78
2022-11-19T10:30:26.054Z,99735.31
2022-11-19T10:33:10.069Z,99726.94
2022-11-19T10:35:45.506Z,99744.41
2022-11-19T10:38:27.869Z,99732.69
2022-11-19T10:41:01.942Z,99727.88
2022-11-19T10:43:35.522Z,99734.13
2022-11-19T10:46:06.155Z,99736.31
2022-11-19T10:48:44.016Z,99727.94
2022-11-19T10:51:33.868Z,99737.94
2022-11-19T10:54:05.412Z,99729.41
2022-11-19T10:56:42.231Z,99732.84
2022-11-19T10:59:19.555Z,99732.41
2022-11-19T11:01:50.661Z,99722.97
2022-11-19T11:04:17.811Z,99739.94
2022-11-19T11:07:01.756Z,99727.44
2022-11-19T11:09:31.863Z,99724.16
2022-11-19T11:12:27.471Z,99720.03
2022-11-19T11:15:07.780Z,99725.34
2022-11-19T11:17:36.655Z,99718.09
2022-11-19T11:20:07.687Z,99728.81
2022-11-19T11:22:36.353Z,99712.56
2022-11-19T11:25:07.325Z,99729.28
2022-11-19T11:27:35.804Z,99720.13
2022-11-19T11:30:12.121Z,99720.91
2022-11-19T11:32:40.864Z,99720.47
2022-11-19T11:35:36.180Z,99720.09
2022-11-19T11:38:05.333Z,99719.91
2022-11-19T11:40:32.592Z,99728.44
2022-11-19T11:43:00.286Z,99721.81
2022-11-19T11:45:33.634Z,99726.00
2022-11-19T11:48:08.647Z,99713.63
2022-11-19T11:50:38.032Z,99725.81
2022-11-19T11:53:09.623Z,99726.41
2022-11-19T11:55:38.724Z,99718.13
2022-11-19T11:58:25.032Z,99724.28
2022-11-19T12:01:15.487Z,99719.94
2022-11-19T12:03:55.563Z,99720.94
2022-11-19T12:06:32.320Z,99724.88
2022-11-19T12:09:16.644Z,99722.81
2022-11-19T12:11:56.490Z,99739.06
2022-11-19T12:14:31.980Z,99734.75
2022-11-19T12:17:08.352Z,99734.53
2022-11-19T12:20:03.884Z,99711.38
2022-11-19T12:23:24.306Z,99725.84
2022-11-19T12:26:22.434Z,99715.75
2022-11-19T12:29:15.469Z,99724.34
2022-11-19T12:32:24.324Z,99724.03
2022-11-19T12:35:00.560Z,99719.09
2022-11-19T12:37:37.156Z,99725.66
2022-11-19T12:40:14.913Z,99725.72
2022-11-19T12:43:23.482Z,99712.94
2022-11-19T12:46:19.840Z,99730.41
2022-11-19T12:49:06.217Z,99725.78
2022-11-19T12:51:47.138Z,99728.78
2022-11-19T12:54:48.648Z,99723.44
2022-11-19T12:57:18.719Z,99720.03
2022-11-19T13:00:19.290Z,99729.69
2022-11-19T13:03:14.935Z,99724.25
2022-11-19T13:06:00.499Z,99729.72
2022-11-19T13:08:33.720Z,99735.97
2022-11-19T13:11:22.393Z,99723.16
2022-11-19T13:13:58.774Z,99740.41
2022-11-19T13:16:29.353Z,99736.47
2022-11-19T13:19:14.945Z,99737.00
2022-11-19T13:21:55.098Z,99735.94
2022-11-19T13:24:41.086Z,99727.41
2022-11-19T13:27:20.231Z,99725.72
2022-11-19T13:30:03.955Z,99746.31
2022-11-19T13:32:40.625Z,99740.13
2022-11-19T13:35:07.699Z,99741.25
2022-11-19T13:37:58.024Z,99738.66
2022-11-19T13:40:35.987Z,99732.56
2022-11-19T13:43:32.056Z,99740.31
2022-11-19T13:46:30.702Z,99744.34
2022-11-19T13:49:15.845Z,99729.88
2022-11-19T13:51:47.690Z,99746.75
2022-11-19T13:54:27.491Z,99730.22
2022-11-19T13:56:58.312Z,99735.53
2022-11-19T13:59:34.420Z,99754.09
2022-11-19T14:02:10.500Z,99752.59
2022-11-19T14:04:48.355Z,99755.28
2022-11-19T14:07:21.865Z,99755.22
2022-11-19T14:10:11.556Z,99759.72
2022-11-19T14:12:57.374Z,99757.22
2022-11-19T14:16:05.106Z,99756.38
2022-11-19T14:18:59.127Z,99751.34
2022-11-19T14:21:44.963Z,99760.34
2022-11-19T14:24:46.159Z,99763.06
2022-11-19T14:27:23.090Z,99761.69
2022-11-19T14:29:50.301Z,99759.50
2022-11-19T14:32:19.059Z,99762.66
2022-11-19T14:35:08.965Z,99763.66
2022-11-19T14:37:58.367Z,99751.09
2022-11-19T14:40:31.870Z,99771.88
2022-11-19T14:43:20.890Z,99773.44
2022-11-19T14:46:03.389Z,99776.06
2022-11-19T14:48:30.802Z,99771.66
2022-11-19T14:51:07.626Z,99776.31
2022-11-19T14:53:38.895Z,99780.84
2022-11-19T14:56:13.821Z,99779.78
2022-11-19T14:58:55.764Z,99780.38
2022-11-19T15:01:24.477Z,99788.25
2022-11-19T15:03:59.693Z,99780.78
2022-11-19T15:06:28.496Z,99787.72
2022-11-19T15:08:59.181Z,99792.63
2022-11-19T15:12:00.366Z,99793.56
2022-11-19T15:14:39.799Z,99792.06
2022-11-19T15:17:10.253Z,99784.19
2022-11-19T15:20:28.723Z,99797.13
2022-11-19T15:23:13.820Z,99789.72
2022-11-19T15:25:53.050Z,99795.50
2022-11-19T15:28:38.323Z,99790.84
2022-11-19T15:31:13.694Z,99773.78
2022-11-19T15:34:01.767Z,99787.41
2022-11-19T15:36:39.810Z,99794.31
2022-11-19T15:39:18.049Z,99794.97
2022-11-19T15:42:03.313Z,99802.97
2022-11-19T15:44:30.448Z,99799.56
2022-11-19T15:47:01.889Z,99787.94
2022-11-19T15:49:31.320Z,99799.22
2022-11-19T15:52:04.848Z,99792.97
2022-11-19T15:54:34.605Z,99795.25
2022-11-19T15:57:06.540Z,99794.41
2022-11-19T15:59:37.946Z,99800.22
2022-11-19T16:02:18.201Z,99806.03
2022-11-19T16:04:45.508Z,99796.09
2022-11-19T16:07:13.751Z,99801.13
2022-11-19T16:09:41.090Z,99801.63
2022-11-19T16:12:38.535Z,99796.72
2022-11-19T16:15:36.769Z,99804.47
2022-11-19T16:18:04.446Z,99802.19
2022-11-19T16:20:33.762Z,99795.75
2022-11-19T16:23:05.260Z,99794.94
2022-11-19T16:25:40.111Z,99813.00
2022-11-19T16:28:19.687Z,99789.94
2022-11-19T16:30:53.816Z,99803.69
2022-11-19T16:33:24.394Z,99811.69
2022-11-19T16:35:53.879Z,99796.53
2022-11-19T16:38:26.918Z,99802.81
2022-11-19T16:41:14.370Z,99810.50
2022-11-19T16:43:44.939Z,99807.81
2022-11-19T16:46:16.678Z,99819.38
2022-11-19T16:48:50.057Z,99811.06
2022-11-19T16:51:32.874Z,99813.31
2022-11-19T16:54:01.522Z,99817.28
2022-11-19T16:56:42.803Z,99809.59
2022-11-19T16:59:19.295Z,99812.66
2022-11-19T17:01:59.714Z,99818.66
2022-11-19T17:04:31.845Z,99817.16
2022-11-19T17:06:59.681Z,99824.69
2022-11-19T17:09:34.920Z,99821.63
2022-11-19T17:12:17.447Z,99823.34
2022-11-19T17:15:32.305Z,99827.00
2022-11-19T17:18:26.946Z,99832.91
2022-11-19T17:20:59.532Z,99825.66
2022-11-19T17:23:30.108Z,99833.34
2022-11-19T17:26:02.586Z,99833.53
2022-11-19T17:28:46.698Z,99832.28
2022-11-19T17:31:23.454Z,99837.38
2022-11-19T17:33:53.891Z,99838.28
2022-11-19T17:36:22.381Z,99828.88
2022-11-19T17:38:49.643Z,99840.38
2022-11-19T17:41:41.605Z,99828.72
2022-11-19T17:44:31.854Z,99842.75
2022-11-19T17:46:59.551Z,99840.38
2022-11-19T17:49:26.724Z,99847.31
2022-11-19T17:51:55.493Z,99849.72
2022-11-19T17:54:24.099Z,99847.44
2022-11-19T17:56:51.691Z,99842.91
2022-11-19T17:59:18.945Z,99852.84
2022-11-19T18:01:46.453Z,99848.06
2022-11-19T18:04:13.906Z,99848.78
2022-11-19T18:06:42.110Z,99834.09
2022-11-19T18:09:09.282Z,99834.88
2022-11-19T18:11:39.019Z,99838.66
2022-11-19T18:14:10.232Z,99832.78
2022-11-19T18:16:40.084Z,99846.47
2022-11-19T18:19:23.349Z,99839.63
2022-11-19T18:21:51.927Z,99831.28
2022-11-19T18:24:19.482Z,99851.34
2022-11-19T18:26:46.986Z,99835.13
2022-11-19T18:29:14.189Z,99835.28
2022-11-19T18:31:49.585Z,99857.94
2022-11-19T18:34:19.509Z,99856.94
2022-11-19T18:36:47.006Z,99845.31
2022-11-19T18:39:14.582Z,99834.97
2022-11-19T18:41:42.568Z,99847.44
2022-11-19T18:44:33.042Z,99855.31
2022-11-19T18:47:06.596Z,99854.47
2022-11-19T18:49:35.212Z,99858.38
2022-11-19T18:52:07.933Z,99843.91
2022-11-19T18:54:35.202Z,99853.94
2022-11-19T18:57:02.728Z,99858.09
2022-11-19T18:59:32.623Z,99847.44
2022-11-19T19:02:00.188Z,99844.19
2022-11-19T19:04:27.548Z,99846.91
2022-11-19T19:06:55.106Z,99862.56
2022-11-19T19:09:22.787Z,99852.44
2022-11-19T19:12:13.600Z,99854.03
2022-11-19T19:14:42.630Z,99853.50
2022-11-19T19:17:11.443Z,99842.56
2022-11-19T19:19:39.613Z,99835.13
2022-11-19T19:22:07.968Z,99842.78
2022-11-19T19:24:35.143Z,99835.19
2022-11-19T19:27:03.015Z,99852.78
2022-11-19T19:29:30.220Z,99853.50
2022-11-19T19:31:58.426Z,99847.53
2022-11-19T19:34:25.657Z,99840.78
2022-11-19T19:36:53.725Z,99830.38
2022-11-19T19:39:21.505Z,99834.13
2022-11-19T19:41:49.514Z,99842.41
2022-11-19T19:44:17.299Z,99840.53
2022-11-19T19:46:48.011Z,99846.59
2022-11-19T19:49:15.304Z,99858.22
2022-11-19T19:51:42.841Z,99847.16
2022-11-19T19:54:10.046Z,99843.78
2022-11-19T19:56:37.645Z,99847.03
2022-11-19T19:59:05.047Z,99840.47
2022-11-19T20:01:35.542Z,99862.97
2022-11-19T20:04:11.171Z,99853.91
2022-11-19T20:06:44.422Z,99844.31
2022-11-19T20:09:11.793Z,99858.13
2022-11-19T20:11:39.278Z,99866.63
2022-11-19T20:14:06.524Z,99847.81
2022-11-19T20:16:35.242Z,99855.66
2022-11-19T20:19:02.659Z,99865.59
2022-11-19T20:21:34.146Z,99860.28
2022-11-19T20:24:04.864Z,99871.75
2022-11-19T20:26:34.856Z,99870.16
2022-11-19T20:29:04.145Z,99865.91
2022-11-19T20:31:33.078Z,99875.47
2022-11-19T20:34:02.169Z,99870.97
2022-11-19T20:36:31.942Z,99859.78
2022-11-19T20:38:59.569Z,99870.06
2022-11-19T20:41:47.246Z,99872.78
2022-11-19T20:44:22.598Z,99869.28
2022-11-19T20:46:59.621Z,99875.31
2022-11-19T20:49:28.984Z,99874.38
2022-11-19T20:51:57.354Z,99870.84
2022-11-19T20:54:26.146Z,99866.63
2022-11-19T20:56:55.197Z,99877.72
2022-11-19T20:59:23.646Z,99881.38
2022-11-19T21:01:52.348Z,99874.44
2022-11-19T21:04:21.013Z,99864.16
2022-11-19T21:06:50.059Z,99878.72
2022-11-19T21:09:19.813Z,99863.94
2022-11-19T21:11:48.080Z,99894.69
2022-11-19T21:14:15.644Z,99881.97
2022-11-19T21:16:43.092Z,99874.00
2022-11-19T21:19:10.912Z,99889.44
2022-11-19T21:21:38.858Z,99868.59
2022-11-19T21:24:06.585Z,99879.22
2022-11-19T21:26:34.427Z,99884.47
2022-11-19T21:29:01.707Z,99875.31
2022-11-19T21:31:45.468Z,99882.81
2022-11-19T21:34:14.694Z,99890.28
2022-11-19T21:36:43.598Z,99885.44
2022-11-19T21:39:11.960Z,99884.09
2022-11-19T21:41:39.577Z,99884.28
2022-11-19T21:44:07.196Z,99878.94
2022-11-19T21:46:35.399Z,99862.25
2022-11-19T21:49:03.142Z,99875.03
2022-11-19T21:51:30.706Z,99869.13
2022-11-19T21:53:59.044Z,99879.69
2022-11-19T21:56:27.504Z,99867.00
2022-11-19T21:58:54.723Z,99883.00
2022-11-19T22:01:22.443Z,99867.28
2022-11-19T22:03:49.780Z,99872.25
2022-11-19T22:06:17.280Z,99870.28
2022-11-19T22:08:44.463Z,99869.56
2022-11-19T22:11:31.551Z,99875.31
2022-11-19T22:14:04.794Z,99890.19
2022-11-19T22:16:35.298Z,99876.41
2022-11-19T22:19:02.733Z,99872.06
2022-11-19T22:21:30.317Z,99877.66
2022-11-19T22:23:57.927Z,99881.94
2022-11-19T22:26:25.896Z,99880.19
2022-11-19T22:28:53.216Z,99865.97
2022-11-19T22:31:20.739Z,99864.25
2022-11-19T22:33:49.794Z,99874.13
2022-11-19T22:36:18.539Z,99864.78
2022-11-19T22:38:45.701Z,99862.34
2022-11-19T22:41:15.581Z,99876.00
2022-11-19T22:43:43.397Z,99878.94
2022-11-19T22:46:13.095Z,99879.56
2022-11-19T22:48:40.559Z,99876.66
2022-11-19T22:51:11.824Z,99875.22
2022-11-19T22:53:39.298Z,99881.22
2022-11-19T22:56:09.911Z,99870.88
2022-11-19T22:58:38.302Z,99877.06
2022-11-19T23:01:06.991Z,99874.66
2022-11-19T23:03:34.238Z,99863.13
2022-11-19T23:06:01.701Z,99869.69
2022-11-19T23:08:28.903Z,99860.56
2022-11-19T23:11:01.223Z,99860.81
2022-11-19T23:13:33.320Z,99862.69
2022-11-19T23:16:00.725Z,99874.81
2022-11-19T23:18:29.347Z,99878.59
2022-11-19T23:21:03.082Z,99851.91
2022-11-19T23:23:30.391Z,99871.41
2022-11-19T23:25:59.561Z,99853.81
2022-11-19T23:28:28.803Z,99861.97
2022-11-19T23:30:56.452Z,99871.63
2022-11-19T23:33:24.011Z,99858.78
2022-11-19T23:35:51.473Z,99860.34
2022-11-19T23:38:18.646Z,99859.97
2022-11-19T23:40:46.154Z,99851.63
2022-11-19T23:43:13.353Z,99838.72
2022-11-19T23:45:40.900Z,99846.28
2022-11-19T23:48:08.738Z,99857.53
2022-11-19T23:50:36.190Z,99845.94
2022-11-19T23:53:03.332Z,99854.75
2022-11-19T23:55:30.837Z,99851.28
2022-11-19T23:57:58.289Z,99854.31
